Impacts TAF Board
For situational awareness. Not to be used for flight planning purposes.
IDs:

KFLL - Ft Lauderdale-Hollyw, FL, US

Issued at 1120 UTC 14 Dec 2019
Updated at 1338 UTC 14 Dec 2019
Potential Impact None Slight Moderate High
Time1253Z 14/14Z 14/15Z 14/16Z 14/17Z 14/18Z 14/19Z 14/20Z 14/21Z 14/22Z 14/23Z 15/00Z 15/01Z 15/02Z>>
Type OBS PRVL PRVL PRVL PRVL PRVL
  [TEMP]  
PRVL
  [TEMP]  
PRVL
  [TEMP]  
PRVL PRVL PRVL PRVL PRVL PRVL
VIS 10 >6 >6 >6 >6 >6
  [3]  
>6
  [3]  
>6
  [3]  
>6 >6 >6 >6 >6 >6
CIG -- 60 60 60 60 60
  [20]  
60
  [20]  
60
  [20]  
-- -- -- -- -- --
Cover FEW BKN BKN BKN BKN BKN
  [OVC]  
BKN
  [OVC]  
BKN
  [OVC]  
SCT SCT SCT SCT SCT SCT
FltCat VFR VFR VFR VFR VFR VFR
  [MVFR]  
VFR
  [MVFR]  
VFR
  [MVFR]  
VFR VFR VFR VFR VFR VFR
WX -- VCSH VCSH VCSH VCSH VCSH
  [SHRA]  
VCSH
  [SHRA]  
VCSH
  [SHRA]  
VCSH VCSH VCSH VCSH -- --
WDir 220 230 230 230 230 230
[230]
230
[230]
230
[230]
260 260 260 260 300 300
WSpd 8 10 10 10 10 10
  [10]  
10
  [10]  
10
  [10]  
12 12 12 12 7 7
WGst 16 20 20 20 20 20
  [20]  
20
  [20]  
20
  [20]  
22 22 22 22 -- --
Raw TAF
KFLL 141120Z 1412/1518 20006KT P6SM FEW030 SCT150 BKN250
  FM141400 23010G20KT P6SM VCSH SCT030 BKN060
  TEMPO 1418/1421 3SM SHRA BKN020 OVC040
  FM142100 26012G22KT P6SM VCSH SCT030 SCT250
  FM150100 30007KT P6SM FEW050 SCT250
  FM150800 35005KT P6SM FEW060 SCT250


Raw METAR
KFLL 141253Z 22008G16KT 10SM FEW025 FEW070 22/20 A2986 RMK AO2 SLP110 T02170200
KFLL 141153Z 23007KT 10SM FEW022 FEW045 SCT070 21/20 A2984 RMK AO2 SLP105 T02110200 10228 20200 55001
KFLL 141053Z 19004KT 10SM FEW120 SCT250 21/20 A2983 RMK AO2 SLP102 T02060200

METAR Board
Radar Display
Forecast Discussion
For situational awareness. Not to be used for flight planning purposes.